sensor_id;sensor_type;location;lat;lon;timestamp;P1;durP1;ratioP1;P2;durP2;ratioP2
39958;SDS011;25639;53.634;9.880;2023-03-03T00:02:14;67.00;;;22.45;;
39958;SDS011;25639;53.634;9.880;2023-03-03T00:04:40;103.82;;;22.98;;
39958;SDS011;25639;53.634;9.880;2023-03-03T00:07:05;87.35;;;22.15;;
39958;SDS011;25639;53.634;9.880;2023-03-03T00:09:30;75.00;;;21.98;;
39958;SDS011;25639;53.634;9.880;2023-03-03T00:11:56;154.50;;;26.92;;
39958;SDS011;25639;53.634;9.880;2023-03-03T00:14:27;62.35;;;23.20;;
39958;SDS011;25639;53.634;9.880;2023-03-03T00:16:54;64.88;;;22.00;;
39958;SDS011;25639;53.634;9.880;2023-03-03T00:19:21;111.47;;;22.48;;
39958;SDS011;25639;53.634;9.880;2023-03-03T00:21:50;53.13;;;20.90;;
39958;SDS011;25639;53.634;9.880;2023-03-03T00:24:23;62.15;;;21.42;;
39958;SDS011;25639;53.634;9.880;2023-03-03T00:27:00;202.13;;;26.33;;
39958;SDS011;25639;53.634;9.880;2023-03-03T00:29:37;135.85;;;24.95;;
39958;SDS011;25639;53.634;9.880;2023-03-03T00:32:15;208.35;;;28.30;;
39958;SDS011;25639;53.634;9.880;2023-03-03T00:34:51;127.10;;;25.73;;
39958;SDS011;25639;53.634;9.880;2023-03-03T00:39:50;81.40;;;24.08;;
39958;SDS011;25639;53.634;9.880;2023-03-03T00:42:15;68.93;;;21.50;;
39958;SDS011;25639;53.634;9.880;2023-03-03T00:44:53;77.35;;;22.20;;
39958;SDS011;25639;53.634;9.880;2023-03-03T00:52:35;49.60;;;20.92;;
39958;SDS011;25639;53.634;9.880;2023-03-03T00:55:05;58.45;;;20.00;;
39958;SDS011;25639;53.634;9.880;2023-03-03T00:57:32;101.45;;;22.17;;
39958;SDS011;25639;53.634;9.880;2023-03-03T00:59:57;57.97;;;19.15;;
39958;SDS011;25639;53.634;9.880;2023-03-03T01:02:22;63.55;;;20.83;;
39958;SDS011;25639;53.634;9.880;2023-03-03T01:04:49;43.67;;;19.77;;
39958;SDS011;25639;53.634;9.880;2023-03-03T01:07:17;55.50;;;20.50;;
39958;SDS011;25639;53.634;9.880;2023-03-03T01:09:43;86.63;;;20.48;;
39958;SDS011;25639;53.634;9.880;2023-03-03T01:12:08;38.63;;;18.48;;
39958;SDS011;25639;53.634;9.880;2023-03-03T01:14:34;38.05;;;18.73;;
39958;SDS011;25639;53.634;9.880;2023-03-03T01:16:59;64.97;;;18.73;;
39958;SDS011;25639;53.634;9.880;2023-03-03T01:19:25;78.60;;;19.17;;
39958;SDS011;25639;53.634;9.880;2023-03-03T01:21:50;86.10;;;20.30;;
39958;SDS011;25639;53.634;9.880;2023-03-03T01:24:16;60.60;;;18.65;;
39958;SDS011;25639;53.634;9.880;2023-03-03T01:26:41;44.80;;;17.67;;
39958;SDS011;25639;53.634;9.880;2023-03-03T01:29:06;37.50;;;17.75;;
39958;SDS011;25639;53.634;9.880;2023-03-03T01:31:32;51.08;;;18.15;;
39958;SDS011;25639;53.634;9.880;2023-03-03T01:33:57;39.95;;;19.38;;
39958;SDS011;25639;53.634;9.880;2023-03-03T01:36:23;48.40;;;19.88;;
39958;SDS011;25639;53.634;9.880;2023-03-03T01:38:49;128.93;;;21.90;;
39958;SDS011;25639;53.634;9.880;2023-03-03T01:41:15;56.40;;;19.33;;
39958;SDS011;25639;53.634;9.880;2023-03-03T01:43:44;92.18;;;19.60;;
39958;SDS011;25639;53.634;9.880;2023-03-03T01:49:22;41.80;;;17.65;;
39958;SDS011;25639;53.634;9.880;2023-03-03T01:51:54;44.22;;;18.17;;
39958;SDS011;25639;53.634;9.880;2023-03-03T01:54:24;60.28;;;18.75;;
39958;SDS011;25639;53.634;9.880;2023-03-03T01:56:54;50.28;;;18.73;;
39958;SDS011;25639;53.634;9.880;2023-03-03T01:59:24;96.25;;;21.33;;
39958;SDS011;25639;53.634;9.880;2023-03-03T02:01:54;54.53;;;19.67;;
39958;SDS011;25639;53.634;9.880;2023-03-03T02:04:19;63.55;;;20.60;;
39958;SDS011;25639;53.634;9.880;2023-03-03T02:06:54;62.95;;;19.50;;
39958;SDS011;25639;53.634;9.880;2023-03-03T02:12:22;60.30;;;19.25;;
39958;SDS011;25639;53.634;9.880;2023-03-03T02:14:55;53.33;;;18.40;;
39958;SDS011;25639;53.634;9.880;2023-03-03T02:17:20;40.13;;;17.83;;
39958;SDS011;25639;53.634;9.880;2023-03-03T02:22:29;48.80;;;19.17;;
39958;SDS011;25639;53.634;9.880;2023-03-03T02:25:03;91.65;;;20.98;;
39958;SDS011;25639;53.634;9.880;2023-03-03T02:27:32;70.43;;;19.23;;
39958;SDS011;25639;53.634;9.880;2023-03-03T02:30:06;45.20;;;19.67;;
39958;SDS011;25639;53.634;9.880;2023-03-03T02:32:34;79.38;;;20.48;;
39958;SDS011;25639;53.634;9.880;2023-03-03T02:34:59;40.90;;;19.45;;
39958;SDS011;25639;53.634;9.880;2023-03-03T02:37:24;99.88;;;22.50;;
39958;SDS011;25639;53.634;9.880;2023-03-03T02:39:50;167.18;;;23.05;;
39958;SDS011;25639;53.634;9.880;2023-03-03T02:47:14;69.90;;;20.48;;
39958;SDS011;25639;53.634;9.880;2023-03-03T02:49:40;42.20;;;19.20;;
39958;SDS011;25639;53.634;9.880;2023-03-03T02:52:07;67.07;;;19.38;;
39958;SDS011;25639;53.634;9.880;2023-03-03T02:54:33;90.55;;;20.50;;
39958;SDS011;25639;53.634;9.880;2023-03-03T02:57:00;55.28;;;19.48;;
39958;SDS011;25639;53.634;9.880;2023-03-03T02:59:25;86.22;;;20.58;;
39958;SDS011;25639;53.634;9.880;2023-03-03T03:01:51;171.02;;;22.85;;
39958;SDS011;25639;53.634;9.880;2023-03-03T03:04:20;184.23;;;24.50;;
39958;SDS011;25639;53.634;9.880;2023-03-03T03:06:47;43.08;;;18.73;;
39958;SDS011;25639;53.634;9.880;2023-03-03T03:09:13;84.97;;;19.42;;
39958;SDS011;25639;53.634;9.880;2023-03-03T03:11:39;56.83;;;18.45;;
39958;SDS011;25639;53.634;9.880;2023-03-03T03:14:06;106.28;;;20.55;;
39958;SDS011;25639;53.634;9.880;2023-03-03T03:16:32;56.47;;;18.73;;
39958;SDS011;25639;53.634;9.880;2023-03-03T03:18:58;129.45;;;23.05;;
39958;SDS011;25639;53.634;9.880;2023-03-03T03:21:24;33.38;;;16.30;;
39958;SDS011;25639;53.634;9.880;2023-03-03T03:23:50;43.38;;;18.55;;
39958;SDS011;25639;53.634;9.880;2023-03-03T03:26:15;58.83;;;18.92;;
39958;SDS011;25639;53.634;9.880;2023-03-03T03:28:40;77.45;;;20.08;;
39958;SDS011;25639;53.634;9.880;2023-03-03T03:31:06;45.85;;;17.45;;
39958;SDS011;25639;53.634;9.880;2023-03-03T03:33:32;48.58;;;18.58;;
39958;SDS011;25639;53.634;9.880;2023-03-03T03:35:58;99.90;;;18.60;;
39958;SDS011;25639;53.634;9.880;2023-03-03T03:38:24;45.22;;;17.40;;
39958;SDS011;25639;53.634;9.880;2023-03-03T03:40:51;62.67;;;16.90;;
39958;SDS011;25639;53.634;9.880;2023-03-03T03:43:16;45.42;;;16.80;;
39958;SDS011;25639;53.634;9.880;2023-03-03T03:45:41;46.35;;;17.67;;
39958;SDS011;25639;53.634;9.880;2023-03-03T03:48:07;117.45;;;19.77;;
39958;SDS011;25639;53.634;9.880;2023-03-03T03:50:32;95.47;;;20.52;;
39958;SDS011;25639;53.634;9.880;2023-03-03T03:52:58;89.20;;;19.55;;
39958;SDS011;25639;53.634;9.880;2023-03-03T03:55:23;110.55;;;18.90;;
39958;SDS011;25639;53.634;9.880;2023-03-03T03:57:48;38.50;;;17.40;;
39958;SDS011;25639;53.634;9.880;2023-03-03T04:00:14;76.90;;;18.40;;
39958;SDS011;25639;53.634;9.880;2023-03-03T04:02:39;77.60;;;17.77;;
39958;SDS011;25639;53.634;9.880;2023-03-03T04:05:05;38.47;;;17.75;;
39958;SDS011;25639;53.634;9.880;2023-03-03T04:07:31;42.17;;;17.80;;
39958;SDS011;25639;53.634;9.880;2023-03-03T04:09:56;36.20;;;16.92;;
39958;SDS011;25639;53.634;9.880;2023-03-03T04:12:21;73.13;;;16.80;;
39958;SDS011;25639;53.634;9.880;2023-03-03T04:14:47;78.90;;;17.75;;
39958;SDS011;25639;53.634;9.880;2023-03-03T04:17:16;55.58;;;18.13;;
39958;SDS011;25639;53.634;9.880;2023-03-03T04:19:43;31.35;;;15.27;;
39958;SDS011;25639;53.634;9.880;2023-03-03T04:22:09;40.58;;;17.05;;
39958;SDS011;25639;53.634;9.880;2023-03-03T04:24:36;72.38;;;19.25;;
39958;SDS011;25639;53.634;9.880;2023-03-03T04:27:02;54.58;;;16.73;;
39958;SDS011;25639;53.634;9.880;2023-03-03T04:29:27;33.25;;;16.15;;
39958;SDS011;25639;53.634;9.880;2023-03-03T04:31:53;56.13;;;17.33;;
39958;SDS011;25639;53.634;9.880;2023-03-03T04:34:19;40.05;;;17.25;;
39958;SDS011;25639;53.634;9.880;2023-03-03T04:36:44;58.75;;;17.25;;
39958;SDS011;25639;53.634;9.880;2023-03-03T04:39:09;51.03;;;16.65;;
39958;SDS011;25639;53.634;9.880;2023-03-03T04:41:34;35.03;;;16.67;;
39958;SDS011;25639;53.634;9.880;2023-03-03T04:44:00;42.60;;;17.40;;
39958;SDS011;25639;53.634;9.880;2023-03-03T04:46:26;40.88;;;17.65;;
39958;SDS011;25639;53.634;9.880;2023-03-03T04:48:51;35.92;;;17.77;;
39958;SDS011;25639;53.634;9.880;2023-03-03T04:51:16;72.00;;;18.10;;
39958;SDS011;25639;53.634;9.880;2023-03-03T04:53:42;44.42;;;18.27;;
39958;SDS011;25639;53.634;9.880;2023-03-03T04:56:08;44.65;;;18.25;;
39958;SDS011;25639;53.634;9.880;2023-03-03T04:58:33;47.97;;;17.05;;
39958;SDS011;25639;53.634;9.880;2023-03-03T05:00:58;38.03;;;16.35;;
39958;SDS011;25639;53.634;9.880;2023-03-03T05:03:25;38.60;;;17.02;;
39958;SDS011;25639;53.634;9.880;2023-03-03T05:05:51;31.50;;;15.85;;
39958;SDS011;25639;53.634;9.880;2023-03-03T05:08:16;50.25;;;16.60;;
39958;SDS011;25639;53.634;9.880;2023-03-03T05:10:41;39.25;;;17.02;;
39958;SDS011;25639;53.634;9.880;2023-03-03T05:13:07;37.80;;;17.17;;
39958;SDS011;25639;53.634;9.880;2023-03-03T05:15:33;38.60;;;17.70;;
39958;SDS011;25639;53.634;9.880;2023-03-03T05:17:59;72.05;;;17.60;;
39958;SDS011;25639;53.634;9.880;2023-03-03T05:20:24;39.72;;;16.75;;
39958;SDS011;25639;53.634;9.880;2023-03-03T05:22:50;35.25;;;16.60;;
39958;SDS011;25639;53.634;9.880;2023-03-03T05:25:15;31.88;;;15.63;;
39958;SDS011;25639;53.634;9.880;2023-03-03T05:27:41;36.58;;;17.58;;
39958;SDS011;25639;53.634;9.880;2023-03-03T05:30:08;31.73;;;15.52;;
39958;SDS011;25639;53.634;9.880;2023-03-03T05:32:34;70.07;;;16.50;;
39958;SDS011;25639;53.634;9.880;2023-03-03T05:35:00;34.05;;;14.88;;
39958;SDS011;25639;53.634;9.880;2023-03-03T05:37:25;65.53;;;16.23;;
39958;SDS011;25639;53.634;9.880;2023-03-03T05:39:50;31.65;;;14.00;;
39958;SDS011;25639;53.634;9.880;2023-03-03T05:42:16;27.33;;;14.40;;
39958;SDS011;25639;53.634;9.880;2023-03-03T05:44:41;38.70;;;15.35;;
39958;SDS011;25639;53.634;9.880;2023-03-03T05:47:06;45.50;;;15.10;;
39958;SDS011;25639;53.634;9.880;2023-03-03T05:49:32;62.88;;;14.90;;
39958;SDS011;25639;53.634;9.880;2023-03-03T05:51:57;37.88;;;15.55;;
39958;SDS011;25639;53.634;9.880;2023-03-03T05:54:23;38.10;;;15.18;;
39958;SDS011;25639;53.634;9.880;2023-03-03T05:56:48;35.20;;;14.38;;
39958;SDS011;25639;53.634;9.880;2023-03-03T05:59:14;36.25;;;14.88;;
39958;SDS011;25639;53.634;9.880;2023-03-03T06:01:39;39.72;;;15.38;;
39958;SDS011;25639;53.634;9.880;2023-03-03T06:04:04;44.20;;;15.45;;
39958;SDS011;25639;53.634;9.880;2023-03-03T06:06:30;30.38;;;15.13;;
39958;SDS011;25639;53.634;9.880;2023-03-03T06:08:55;36.05;;;15.88;;
39958;SDS011;25639;53.634;9.880;2023-03-03T06:11:20;62.42;;;15.77;;
39958;SDS011;25639;53.634;9.880;2023-03-03T06:13:45;26.80;;;14.50;;
39958;SDS011;25639;53.634;9.880;2023-03-03T06:16:11;110.75;;;17.23;;
39958;SDS011;25639;53.634;9.880;2023-03-03T06:18:36;25.38;;;13.70;;
39958;SDS011;25639;53.634;9.880;2023-03-03T06:21:01;34.13;;;14.13;;
39958;SDS011;25639;53.634;9.880;2023-03-03T06:23:27;32.22;;;14.57;;
39958;SDS011;25639;53.634;9.880;2023-03-03T06:25:52;37.08;;;14.52;;
39958;SDS011;25639;53.634;9.880;2023-03-03T06:28:17;41.33;;;14.23;;
39958;SDS011;25639;53.634;9.880;2023-03-03T06:30:43;36.10;;;14.23;;
39958;SDS011;25639;53.634;9.880;2023-03-03T06:33:08;36.83;;;14.85;;
39958;SDS011;25639;53.634;9.880;2023-03-03T06:35:33;26.48;;;13.88;;
39958;SDS011;25639;53.634;9.880;2023-03-03T06:37:59;63.97;;;15.10;;
39958;SDS011;25639;53.634;9.880;2023-03-03T06:40:24;34.67;;;15.93;;
39958;SDS011;25639;53.634;9.880;2023-03-03T06:42:49;35.78;;;14.45;;
39958;SDS011;25639;53.634;9.880;2023-03-03T06:45:14;42.70;;;14.20;;
39958;SDS011;25639;53.634;9.880;2023-03-03T06:47:40;29.55;;;13.98;;
39958;SDS011;25639;53.634;9.880;2023-03-03T06:50:06;86.88;;;16.60;;
39958;SDS011;25639;53.634;9.880;2023-03-03T06:52:32;34.00;;;13.27;;
39958;SDS011;25639;53.634;9.880;2023-03-03T06:54:58;109.95;;;15.07;;
39958;SDS011;25639;53.634;9.880;2023-03-03T06:57:27;33.33;;;13.45;;
39958;SDS011;25639;53.634;9.880;2023-03-03T06:59:55;29.27;;;13.57;;
39958;SDS011;25639;53.634;9.880;2023-03-03T07:02:23;71.03;;;15.05;;
39958;SDS011;25639;53.634;9.880;2023-03-03T07:04:48;125.47;;;17.02;;
39958;SDS011;25639;53.634;9.880;2023-03-03T07:07:21;29.50;;;13.50;;
39958;SDS011;25639;53.634;9.880;2023-03-03T07:09:49;28.25;;;13.90;;
39958;SDS011;25639;53.634;9.880;2023-03-03T07:12:20;28.00;;;13.32;;
39958;SDS011;25639;53.634;9.880;2023-03-03T07:15:04;35.13;;;13.43;;
39958;SDS011;25639;53.634;9.880;2023-03-03T07:17:40;37.75;;;14.23;;
39958;SDS011;25639;53.634;9.880;2023-03-03T07:20:11;33.72;;;13.77;;
39958;SDS011;25639;53.634;9.880;2023-03-03T07:22:47;103.15;;;15.70;;
39958;SDS011;25639;53.634;9.880;2023-03-03T07:25:34;79.50;;;14.98;;
39958;SDS011;25639;53.634;9.880;2023-03-03T07:30:51;29.45;;;12.93;;
39958;SDS011;25639;53.634;9.880;2023-03-03T07:33:38;54.90;;;13.45;;
39958;SDS011;25639;53.634;9.880;2023-03-03T07:36:21;38.20;;;14.18;;
39958;SDS011;25639;53.634;9.880;2023-03-03T07:38:52;33.90;;;14.32;;
39958;SDS011;25639;53.634;9.880;2023-03-03T07:41:19;28.17;;;13.88;;
39958;SDS011;25639;53.634;9.880;2023-03-03T07:43:51;31.70;;;16.02;;
39958;SDS011;25639;53.634;9.880;2023-03-03T07:46:21;32.35;;;13.68;;
39958;SDS011;25639;53.634;9.880;2023-03-03T07:48:52;36.42;;;13.00;;
39958;SDS011;25639;53.634;9.880;2023-03-03T07:51:21;112.25;;;52.00;;
39958;SDS011;25639;53.634;9.880;2023-03-03T07:56:41;31.00;;;13.02;;
39958;SDS011;25639;53.634;9.880;2023-03-03T07:59:17;28.67;;;12.63;;
39958;SDS011;25639;53.634;9.880;2023-03-03T08:01:53;23.38;;;11.32;;
39958;SDS011;25639;53.634;9.880;2023-03-03T08:07:00;27.85;;;12.30;;
39958;SDS011;25639;53.634;9.880;2023-03-03T08:09:29;46.03;;;12.52;;
39958;SDS011;25639;53.634;9.880;2023-03-03T08:14:33;25.42;;;11.35;;
39958;SDS011;25639;53.634;9.880;2023-03-03T08:17:00;19.83;;;11.07;;
39958;SDS011;25639;53.634;9.880;2023-03-03T08:19:26;21.50;;;11.15;;
39958;SDS011;25639;53.634;9.880;2023-03-03T08:22:01;20.42;;;10.05;;
39958;SDS011;25639;53.634;9.880;2023-03-03T08:24:36;137.15;;;44.03;;
39958;SDS011;25639;53.634;9.880;2023-03-03T08:27:01;43.22;;;13.65;;
39958;SDS011;25639;53.634;9.880;2023-03-03T08:29:26;36.85;;;14.25;;
39958;SDS011;25639;53.634;9.880;2023-03-03T08:31:51;31.35;;;12.23;;
39958;SDS011;25639;53.634;9.880;2023-03-03T08:34:16;34.70;;;13.32;;
39958;SDS011;25639;53.634;9.880;2023-03-03T08:36:42;108.65;;;39.30;;
39958;SDS011;25639;53.634;9.880;2023-03-03T08:39:07;16.58;;;8.30;;
39958;SDS011;25639;53.634;9.880;2023-03-03T08:41:34;21.05;;;8.77;;
39958;SDS011;25639;53.634;9.880;2023-03-03T08:43:59;27.35;;;10.70;;
39958;SDS011;25639;53.634;9.880;2023-03-03T08:46:24;40.92;;;18.80;;
39958;SDS011;25639;53.634;9.880;2023-03-03T08:48:50;62.20;;;27.88;;
39958;SDS011;25639;53.634;9.880;2023-03-03T08:51:16;31.63;;;17.02;;
39958;SDS011;25639;53.634;9.880;2023-03-03T08:53:42;15.77;;;8.75;;
39958;SDS011;25639;53.634;9.880;2023-03-03T08:56:07;13.65;;;7.60;;
39958;SDS011;25639;53.634;9.880;2023-03-03T08:58:32;20.98;;;7.38;;
39958;SDS011;25639;53.634;9.880;2023-03-03T09:00:58;15.25;;;7.50;;
39958;SDS011;25639;53.634;9.880;2023-03-03T09:03:23;15.77;;;7.68;;
39958;SDS011;25639;53.634;9.880;2023-03-03T09:05:48;17.98;;;8.15;;
39958;SDS011;25639;53.634;9.880;2023-03-03T09:08:14;15.82;;;7.30;;
39958;SDS011;25639;53.634;9.880;2023-03-03T09:10:39;16.88;;;7.90;;
39958;SDS011;25639;53.634;9.880;2023-03-03T09:13:06;16.35;;;7.15;;
39958;SDS011;25639;53.634;9.880;2023-03-03T09:15:37;19.13;;;7.22;;
39958;SDS011;25639;53.634;9.880;2023-03-03T09:18:14;12.95;;;6.90;;
39958;SDS011;25639;53.634;9.880;2023-03-03T09:20:40;21.40;;;7.70;;
39958;SDS011;25639;53.634;9.880;2023-03-03T09:26:21;16.48;;;7.75;;
39958;SDS011;25639;53.634;9.880;2023-03-03T09:28:57;19.98;;;7.25;;
39958;SDS011;25639;53.634;9.880;2023-03-03T09:31:53;12.77;;;6.88;;
39958;SDS011;25639;53.634;9.880;2023-03-03T09:37:00;16.33;;;7.90;;
39958;SDS011;25639;53.634;9.880;2023-03-03T09:39:28;18.35;;;8.63;;
39958;SDS011;25639;53.634;9.880;2023-03-03T09:41:58;26.80;;;8.35;;
39958;SDS011;25639;53.634;9.880;2023-03-03T09:44:48;22.00;;;8.30;;
39958;SDS011;25639;53.634;9.880;2023-03-03T10:03:38;29.83;;;10.23;;
39958;SDS011;25639;53.634;9.880;2023-03-03T10:11:55;20.30;;;8.82;;
39958;SDS011;25639;53.634;9.880;2023-03-03T10:14:34;23.30;;;8.80;;
39958;SDS011;25639;53.634;9.880;2023-03-03T10:20:02;27.90;;;12.35;;
39958;SDS011;25639;53.634;9.880;2023-03-03T10:22:51;25.20;;;11.02;;
39958;SDS011;25639;53.634;9.880;2023-03-03T10:30:30;24.67;;;10.88;;
39958;SDS011;25639;53.634;9.880;2023-03-03T10:33:19;22.92;;;11.23;;
39958;SDS011;25639;53.634;9.880;2023-03-03T10:35:59;19.13;;;10.27;;
39958;SDS011;25639;53.634;9.880;2023-03-03T10:41:31;20.95;;;11.48;;
39958;SDS011;25639;53.634;9.880;2023-03-03T10:44:24;31.17;;;14.05;;
39958;SDS011;25639;53.634;9.880;2023-03-03T10:47:30;30.25;;;15.40;;
39958;SDS011;25639;53.634;9.880;2023-03-03T10:52:43;34.63;;;12.90;;
39958;SDS011;25639;53.634;9.880;2023-03-03T11:06:00;24.98;;;11.48;;
39958;SDS011;25639;53.634;9.880;2023-03-03T11:11:49;24.50;;;12.32;;
39958;SDS011;25639;53.634;9.880;2023-03-03T11:15:04;28.13;;;11.98;;
39958;SDS011;25639;53.634;9.880;2023-03-03T11:23:04;32.30;;;14.13;;
39958;SDS011;25639;53.634;9.880;2023-03-03T11:31:20;26.85;;;13.70;;
39958;SDS011;25639;53.634;9.880;2023-03-03T11:33:57;33.85;;;13.60;;
39958;SDS011;25639;53.634;9.880;2023-03-03T11:39:21;31.42;;;13.43;;
39958;SDS011;25639;53.634;9.880;2023-03-03T11:55:13;37.53;;;14.07;;
39958;SDS011;25639;53.634;9.880;2023-03-03T12:00:15;33.97;;;12.98;;
39958;SDS011;25639;53.634;9.880;2023-03-03T12:05:14;31.98;;;13.25;;
39958;SDS011;25639;53.634;9.880;2023-03-03T12:07:54;30.90;;;12.48;;
39958;SDS011;25639;53.634;9.880;2023-03-03T12:10:48;30.10;;;11.13;;
39958;SDS011;25639;53.634;9.880;2023-03-03T12:14:00;28.00;;;10.63;;
39958;SDS011;25639;53.634;9.880;2023-03-03T12:16:23;24.92;;;9.27;;
39958;SDS011;25639;53.634;9.880;2023-03-03T12:24:37;24.45;;;9.05;;
39958;SDS011;25639;53.634;9.880;2023-03-03T12:35:41;19.35;;;8.00;;
39958;SDS011;25639;53.634;9.880;2023-03-03T12:40:43;20.42;;;6.28;;
39958;SDS011;25639;53.634;9.880;2023-03-03T12:49:22;12.60;;;4.32;;
39958;SDS011;25639;53.634;9.880;2023-03-03T12:52:07;10.98;;;4.30;;
39958;SDS011;25639;53.634;9.880;2023-03-03T12:54:49;13.25;;;5.45;;
39958;SDS011;25639;53.634;9.880;2023-03-03T12:57:42;16.77;;;4.38;;
39958;SDS011;25639;53.634;9.880;2023-03-03T13:00:42;12.18;;;3.75;;
39958;SDS011;25639;53.634;9.880;2023-03-03T13:06:13;7.40;;;3.13;;
39958;SDS011;25639;53.634;9.880;2023-03-03T13:14:50;6.80;;;2.30;;
39958;SDS011;25639;53.634;9.880;2023-03-03T13:17:41;6.85;;;2.50;;
39958;SDS011;25639;53.634;9.880;2023-03-03T13:23:11;6.55;;;2.42;;
39958;SDS011;25639;53.634;9.880;2023-03-03T13:28:45;5.88;;;1.77;;
39958;SDS011;25639;53.634;9.880;2023-03-03T13:31:22;9.32;;;2.03;;
39958;SDS011;25639;53.634;9.880;2023-03-03T13:33:53;5.60;;;1.70;;
39958;SDS011;25639;53.634;9.880;2023-03-03T13:36:25;5.78;;;1.30;;
39958;SDS011;25639;53.634;9.880;2023-03-03T13:38:56;4.97;;;1.20;;
39958;SDS011;25639;53.634;9.880;2023-03-03T13:41:37;4.95;;;1.50;;
39958;SDS011;25639;53.634;9.880;2023-03-03T13:55:34;4.72;;;1.30;;
39958;SDS011;25639;53.634;9.880;2023-03-03T13:58:30;5.55;;;1.45;;
39958;SDS011;25639;53.634;9.880;2023-03-03T14:01:16;5.05;;;1.33;;
39958;SDS011;25639;53.634;9.880;2023-03-03T14:06:53;8.93;;;1.00;;
39958;SDS011;25639;53.634;9.880;2023-03-03T14:09:40;6.88;;;1.45;;
39958;SDS011;25639;53.634;9.880;2023-03-03T14:12:30;8.30;;;1.00;;
39958;SDS011;25639;53.634;9.880;2023-03-03T14:20:50;5.53;;;1.10;;
39958;SDS011;25639;53.634;9.880;2023-03-03T14:28:29;3.97;;;1.42;;
39958;SDS011;25639;53.634;9.880;2023-03-03T14:33:45;5.70;;;1.38;;
39958;SDS011;25639;53.634;9.880;2023-03-03T14:36:26;6.28;;;1.20;;
39958;SDS011;25639;53.634;9.880;2023-03-03T14:38:54;6.18;;;1.10;;
39958;SDS011;25639;53.634;9.880;2023-03-03T14:41:20;7.57;;;1.40;;
39958;SDS011;25639;53.634;9.880;2023-03-03T14:47:25;3.20;;;1.20;;
39958;SDS011;25639;53.634;9.880;2023-03-03T14:49:46;9.82;;;1.27;;
39958;SDS011;25639;53.634;9.880;2023-03-03T14:54:41;5.70;;;1.30;;
39958;SDS011;25639;53.634;9.880;2023-03-03T14:59:53;6.40;;;1.25;;
39958;SDS011;25639;53.634;9.880;2023-03-03T15:02:58;7.43;;;1.38;;
39958;SDS011;25639;53.634;9.880;2023-03-03T15:05:30;5.18;;;1.42;;
39958;SDS011;25639;53.634;9.880;2023-03-03T15:07:57;4.82;;;1.45;;
39958;SDS011;25639;53.634;9.880;2023-03-03T15:10:34;9.15;;;1.77;;
39958;SDS011;25639;53.634;9.880;2023-03-03T15:13:44;17.85;;;2.08;;
39958;SDS011;25639;53.634;9.880;2023-03-03T15:18:23;15.60;;;2.85;;
39958;SDS011;25639;53.634;9.880;2023-03-03T15:21:10;10.73;;;1.92;;
39958;SDS011;25639;53.634;9.880;2023-03-03T15:23:48;12.10;;;1.88;;
39958;SDS011;25639;53.634;9.880;2023-03-03T15:26:44;12.13;;;1.92;;
39958;SDS011;25639;53.634;9.880;2023-03-03T15:29:21;12.90;;;2.13;;
39958;SDS011;25639;53.634;9.880;2023-03-03T15:32:11;19.00;;;2.10;;
39958;SDS011;25639;53.634;9.880;2023-03-03T15:35:06;17.45;;;2.42;;
39958;SDS011;25639;53.634;9.880;2023-03-03T15:45:40;11.05;;;2.15;;
39958;SDS011;25639;53.634;9.880;2023-03-03T15:48:28;15.15;;;2.85;;
39958;SDS011;25639;53.634;9.880;2023-03-03T15:51:12;18.05;;;2.15;;
39958;SDS011;25639;53.634;9.880;2023-03-03T15:54:03;15.48;;;2.50;;
39958;SDS011;25639;53.634;9.880;2023-03-03T16:02:09;16.95;;;2.20;;
39958;SDS011;25639;53.634;9.880;2023-03-03T16:04:53;13.18;;;2.38;;
39958;SDS011;25639;53.634;9.880;2023-03-03T16:12:51;15.43;;;2.53;;
39958;SDS011;25639;53.634;9.880;2023-03-03T16:23:47;19.98;;;2.47;;
39958;SDS011;25639;53.634;9.880;2023-03-03T16:28:59;21.83;;;2.58;;
39958;SDS011;25639;53.634;9.880;2023-03-03T16:41:56;21.15;;;2.95;;
39958;SDS011;25639;53.634;9.880;2023-03-03T16:56:37;31.02;;;4.10;;
39958;SDS011;25639;53.634;9.880;2023-03-03T16:59:16;29.08;;;3.85;;
39958;SDS011;25639;53.634;9.880;2023-03-03T17:04:45;25.80;;;3.03;;
39958;SDS011;25639;53.634;9.880;2023-03-03T17:18:17;21.80;;;4.10;;
39958;SDS011;25639;53.634;9.880;2023-03-03T17:21:00;21.13;;;3.40;;
39958;SDS011;25639;53.634;9.880;2023-03-03T17:38:03;33.65;;;4.15;;
39958;SDS011;25639;53.634;9.880;2023-03-03T17:40:42;35.03;;;4.00;;
39958;SDS011;25639;53.634;9.880;2023-03-03T17:51:51;32.45;;;4.40;;
39958;SDS011;25639;53.634;9.880;2023-03-03T17:54:39;31.83;;;3.50;;
39958;SDS011;25639;53.634;9.880;2023-03-03T18:08:11;34.88;;;4.75;;
39958;SDS011;25639;53.634;9.880;2023-03-03T18:16:29;34.88;;;3.90;;
39958;SDS011;25639;53.634;9.880;2023-03-03T18:19:03;32.20;;;4.90;;
39958;SDS011;25639;53.634;9.880;2023-03-03T18:21:50;29.60;;;4.13;;
39958;SDS011;25639;53.634;9.880;2023-03-03T18:35:38;30.25;;;4.22;;
39958;SDS011;25639;53.634;9.880;2023-03-03T18:40:59;30.42;;;4.20;;
39958;SDS011;25639;53.634;9.880;2023-03-03T18:48:46;28.27;;;3.28;;
39958;SDS011;25639;53.634;9.880;2023-03-03T18:51:14;24.92;;;3.63;;
39958;SDS011;25639;53.634;9.880;2023-03-03T19:04:38;35.92;;;4.97;;
39958;SDS011;25639;53.634;9.880;2023-03-03T19:09:44;40.90;;;4.95;;
39958;SDS011;25639;53.634;9.880;2023-03-03T19:12:15;27.15;;;4.70;;
39958;SDS011;25639;53.634;9.880;2023-03-03T19:14:45;36.63;;;4.85;;
39958;SDS011;25639;53.634;9.880;2023-03-03T19:19:57;39.33;;;3.83;;
39958;SDS011;25639;53.634;9.880;2023-03-03T19:22:38;39.65;;;4.75;;
39958;SDS011;25639;53.634;9.880;2023-03-03T19:25:28;33.15;;;4.55;;
39958;SDS011;25639;53.634;9.880;2023-03-03T19:33:24;36.53;;;5.20;;
39958;SDS011;25639;53.634;9.880;2023-03-03T19:36:16;31.77;;;5.13;;
39958;SDS011;25639;53.634;9.880;2023-03-03T19:51:59;30.75;;;4.60;;
39958;SDS011;25639;53.634;9.880;2023-03-03T19:57:51;30.58;;;4.13;;
39958;SDS011;25639;53.634;9.880;2023-03-03T20:08:37;27.48;;;4.32;;
39958;SDS011;25639;53.634;9.880;2023-03-03T20:11:15;39.67;;;5.50;;
39958;SDS011;25639;53.634;9.880;2023-03-03T20:22:21;47.92;;;5.97;;
39958;SDS011;25639;53.634;9.880;2023-03-03T20:27:43;47.80;;;5.10;;
39958;SDS011;25639;53.634;9.880;2023-03-03T20:33:20;31.25;;;4.93;;
39958;SDS011;25639;53.634;9.880;2023-03-03T20:44:23;35.55;;;5.18;;
39958;SDS011;25639;53.634;9.880;2023-03-03T20:49:35;47.15;;;6.72;;
39958;SDS011;25639;53.634;9.880;2023-03-03T20:57:52;40.45;;;4.55;;
39958;SDS011;25639;53.634;9.880;2023-03-03T21:00:26;38.80;;;5.20;;
39958;SDS011;25639;53.634;9.880;2023-03-03T21:05:57;38.38;;;5.03;;
39958;SDS011;25639;53.634;9.880;2023-03-03T21:08:52;43.92;;;4.03;;
39958;SDS011;25639;53.634;9.880;2023-03-03T21:11:40;44.35;;;5.75;;
39958;SDS011;25639;53.634;9.880;2023-03-03T21:14:15;37.45;;;4.50;;
39958;SDS011;25639;53.634;9.880;2023-03-03T21:16:41;44.45;;;4.22;;
39958;SDS011;25639;53.634;9.880;2023-03-03T21:19:10;40.67;;;4.35;;
39958;SDS011;25639;53.634;9.880;2023-03-03T21:21:37;47.60;;;4.47;;
39958;SDS011;25639;53.634;9.880;2023-03-03T21:24:09;33.72;;;3.97;;
39958;SDS011;25639;53.634;9.880;2023-03-03T21:26:53;38.90;;;4.15;;
39958;SDS011;25639;53.634;9.880;2023-03-03T21:34:16;37.53;;;4.22;;
39958;SDS011;25639;53.634;9.880;2023-03-03T21:36:44;38.22;;;4.18;;
39958;SDS011;25639;53.634;9.880;2023-03-03T21:39:18;34.92;;;4.35;;